Ghaziabad Weather



Ghaziabad's Current Weather

Temprature 31.582o broken clouds

broken clouds

Rain: 0 %

Min Temprature31.582o
Max Temprature31.582o
Humidity20
Wind Speed6.82 m/h
Sun Rise06:12:31
Sun Set17:35:36
Current Time: 18-Oct-2019 17:07:06
Lat/Lon: 30.4, 72.76




Ghaziabad's Geo Location



Ghaziabad's Weather Forecast

Time Overall Temp Min Temp Max Temp Humidity Wind Speed Rain
18-Oct-2019 (Fri)
20:00:00 clear sky 24.390 24.390 24.393 38 3.88 m/h 0 %
23:00:00 clear sky 22.300 22.299 22.300 45 2.97 m/h 0 %
19-Oct-2019 (Sat)
02:00:00 broken clouds 22.870 22.868 22.870 36 3.14 m/h 0 %
05:00:00 scattered clouds 20.800 20.798 20.800 52 3.89 m/h 0 %
08:00:00 scattered clouds 25.332 25.332 25.332 40 3.39 m/h 0 %
11:00:00 few clouds 31.780 31.780 31.780 27 3.09 m/h 0 %
14:00:00 clear sky 35.043 35.043 35.043 17 2.55 m/h 0 %
17:00:00 clear sky 32.604 32.604 32.604 17 2.71 m/h 0 %
20:00:00 clear sky 26.041 26.041 26.041 26 3.23 m/h 0 %
23:00:00 clear sky 23.514 23.514 23.514 30 1.25 m/h 0 %
20-Oct-2019 (Sun)
02:00:00 clear sky 22.717 22.717 22.717 30 2.85 m/h 0 %
05:00:00 clear sky 21.938 21.938 21.938 32 2.67 m/h 0 %
08:00:00 broken clouds 25.414 25.414 25.414 27 1.75 m/h 0 %
11:00:00 broken clouds 34.620 34.620 34.620 15 1.43 m/h 0 %
14:00:00 clear sky 35.843 35.843 35.843 12 2.54 m/h 0 %
17:00:00 clear sky 32.761 32.761 32.761 14 2.55 m/h 0 %
20:00:00 clear sky 26.123 26.123 26.123 26 3.02 m/h 0 %
23:00:00 clear sky 24.059 24.059 24.059 30 2.34 m/h 0 %
21-Oct-2019 (Mon)
02:00:00 clear sky 23.156 23.156 23.156 31 2.56 m/h 0 %
05:00:00 clear sky 22.137 22.137 22.137 31 2.52 m/h 0 %
08:00:00 clear sky 25.872 25.872 25.872 24 2.52 m/h 0 %
11:00:00 clear sky 33.795 33.795 33.795 14 2.86 m/h 0 %
14:00:00 clear sky 36.168 36.168 36.168 10 2.74 m/h 0 %
17:00:00 clear sky 32.844 32.844 32.844 11 2.19 m/h 0 %
20:00:00 clear sky 26.073 26.073 26.073 20 1.73 m/h 0 %
23:00:00 clear sky 24.224 24.224 24.224 22 0.87 m/h 0 %
22-Oct-2019 (Tue)
02:00:00 clear sky 22.752 22.752 22.752 23 1.83 m/h 0 %
05:00:00 clear sky 21.356 21.356 21.356 25 3.05 m/h 0 %
08:00:00 clear sky 25.431 25.431 25.431 19 2.58 m/h 0 %
11:00:00 clear sky 34.685 34.685 34.685 10 1.92 m/h 0 %
14:00:00 clear sky 36.849 36.849 36.849 8 3.08 m/h 0 %
17:00:00 clear sky 32.629 32.629 32.629 10 1.55 m/h 0 %
20:00:00 clear sky 25.850 25.850 25.850 18 1.98 m/h 0 %
23:00:00 clear sky 24.532 24.532 24.532 19 1.83 m/h 0 %
23-Oct-2019 (Wed)
02:00:00 clear sky 23.035 23.035 23.035 20 0.78 m/h 0 %
05:00:00 clear sky 21.208 21.208 21.208 22 0.45 m/h 0 %
08:00:00 clear sky 25.623 25.623 25.623 17 1.22 m/h 0 %
11:00:00 clear sky 34.104 34.104 34.104 10 3.13 m/h 0 %
14:00:00 clear sky 36.671 36.671 36.671 8 3.28 m/h 0 %
17:00:00 clear sky 32.750 32.750 32.750 11 3.83 m/h 0 %

Famous Cities (61)